Main page
METAR-TAF:

METAR-TAF

Airports :

Larissa, Greece

latitude: 39-38N, longitude: 022-25E, elevation: 73 m

METAR: missing

Time: 20:18 (18:18 UTC)

Forecast

The report was made 1 hour and 18 minutes ago, at 17:00 UTC
Forecast valid from 23 at 18 UTC to 24 at 03 UTC
Wind 10 kt from the East
Visibility 10 km or more
Few clouds at a height of 2500 ft
Becoming
from 23 at 19 UTC to 23 at 21 UTC
Wind 3 kt from variable directions
Becoming
from 24 at 01 UTC to 24 at 03 UTC
Broken clouds at a height of 2500 ft

TAF: LGLR 231700Z 2318/2403 09010KT 9999 FEW025 BECMG 2319/2321 VRB03KT BECMG 2401/2403 BKN025

Weather observations and forecasts of more than 4000 airports (METAR and TAF reports).

The available stations are represented by yellow and red dots on the map.

Hover mouse over dot to see the name of the station.

Then click to see weather observations and forecasts.

To change the map : click on the green buttons with a black cross to zoom in, on the green button with a dash to zoom out, or on the green arrows for adjacent maps.


METAR-TAF: